logo
Rechercher aéroport 
image banner adimage banner adimage banner ad
image banner ad

TUPJ - Roadtown/Terrance B. Lettsome (Tortola-B.V.I.)

Situé à Roadtown, Virgin Islands British

ICAO - TUPJ, IATA - EIS

Données fournies par Airmate  

Information générale

Coordonnées: N18°26'44" W64°32'30"
Élévation : 16 feet MSL.
Variation magnétique : -13° East
Voir autres Aéroports à (unassigned)

Données opérationnelles

Special qualification required
Heure actuelle UTC:
Heure actuelle locale:
Météo
TAF: TAF TUPJ 232300Z 2400/2424 13010KT 9999 SCT018 PROB30 TEMPO 2400/2418 SHRA
Voir NOTAMs / SUP AIP / TFR affectant cet aéroport [VIEW]
Fréquences de communication: [VIEW]

Pistes:

Identifiant RWYQFULongueur (ft)Largeur (ft)SurfaceLDA (ft)
0761°464698ASP
25241°464698ASP

Coordonnées de l'aéroport

Adresse: Roadtown Virgin Islands British

Vue satellite de TUPJ